createdAt,value
2022-08-17T00:00:05.467Z,15.96
2022-08-17T00:02:32.612Z,15.96
2022-08-17T00:05:05.706Z,15.39
2022-08-17T00:07:32.393Z,15.58
2022-08-17T00:09:59.080Z,15.39
2022-08-17T00:12:40.834Z,14.25
2022-08-17T00:15:13.636Z,15.01
2022-08-17T00:17:42.482Z,14.44
2022-08-17T00:20:12.226Z,15.39
2022-08-17T00:22:39.156Z,15.77
2022-08-17T00:25:13.015Z,15.01
2022-08-17T00:27:40.492Z,15.58
2022-08-17T00:30:11.881Z,15.58
2022-08-17T00:33:11.941Z,15.20
2022-08-17T00:35:34.420Z,15.58
2022-08-17T00:38:01.158Z,15.58
2022-08-17T00:40:39.885Z,16.15
2022-08-17T00:43:33.547Z,15.77
2022-08-17T00:46:15.883Z,16.34
2022-08-17T00:48:44.153Z,15.58
2022-08-17T00:51:26.451Z,15.39
2022-08-17T00:54:22.178Z,15.77
2022-08-17T00:57:15.099Z,15.58
2022-08-17T00:59:51.126Z,15.39
2022-08-17T01:02:42.253Z,16.34
2022-08-17T01:05:23.856Z,16.53
2022-08-17T01:07:53.814Z,15.77
2022-08-17T01:10:58.556Z,14.63
2022-08-17T01:13:19.108Z,15.01
2022-08-17T01:16:31.968Z,15.39
2022-08-17T01:19:03.318Z,14.82
2022-08-17T01:21:56.657Z,15.96
2022-08-17T01:24:24.303Z,15.01
2022-08-17T01:26:51.629Z,15.96
2022-08-17T01:29:23.007Z,14.82
2022-08-17T01:31:56.701Z,14.44
2022-08-17T01:34:25.008Z,15.01
2022-08-17T01:37:05.129Z,15.96
2022-08-17T01:39:54.139Z,15.39
2022-08-17T01:42:31.942Z,15.96
2022-08-17T01:45:06.890Z,15.20
2022-08-17T01:47:36.081Z,15.39
2022-08-17T01:50:11.398Z,16.15
2022-08-17T01:52:39.499Z,15.39
2022-08-17T01:55:08.192Z,16.34
2022-08-17T01:57:35.540Z,15.20
2022-08-17T02:00:10.277Z,16.34
2022-08-17T02:02:37.314Z,15.58
2022-08-17T02:05:07.238Z,14.63
2022-08-17T02:07:59.489Z,14.44
2022-08-17T02:10:23.917Z,15.58
2022-08-17T02:13:04.829Z,15.01
2022-08-17T02:15:32.368Z,14.82
2022-08-17T02:17:59.247Z,15.20
2022-08-17T02:20:42.045Z,15.20
2022-08-17T02:23:13.061Z,16.15
2022-08-17T02:25:44.206Z,14.44
2022-08-17T02:28:11.438Z,15.01
2022-08-17T02:31:00.194Z,16.15
2022-08-17T02:33:25.313Z,15.01
2022-08-17T02:36:12.720Z,14.82
2022-08-17T02:38:42.473Z,14.82
2022-08-17T02:41:09.785Z,15.58
2022-08-17T02:43:36.738Z,16.34
2022-08-17T02:46:03.437Z,15.77
2022-08-17T02:48:32.035Z,15.01
2022-08-17T02:51:00.756Z,15.39
2022-08-17T02:53:33.674Z,15.77
2022-08-17T02:56:04.201Z,14.25
2022-08-17T02:58:35.209Z,14.82
2022-08-17T03:01:06.262Z,15.01
2022-08-17T03:03:33.420Z,15.77
2022-08-17T03:06:01.178Z,15.96
2022-08-17T03:08:28.434Z,15.77
2022-08-17T03:10:55.676Z,14.82
2022-08-17T03:13:23.198Z,15.39
2022-08-17T03:15:50.664Z,15.39
2022-08-17T03:18:24.486Z,14.44
2022-08-17T03:20:56.405Z,15.39
2022-08-17T03:23:25.523Z,15.20
2022-08-17T03:25:53.959Z,15.58
2022-08-17T03:28:23.118Z,15.39
2022-08-17T03:30:51.461Z,14.63
2022-08-17T03:33:19.548Z,14.25
2022-08-17T03:35:47.291Z,15.58
2022-08-17T03:38:17.380Z,15.39
2022-08-17T03:40:57.442Z,14.63
2022-08-17T03:43:26.226Z,14.44
2022-08-17T03:46:28.636Z,14.82
2022-08-17T03:49:17.510Z,14.82
2022-08-17T03:52:03.175Z,15.39
2022-08-17T03:54:48.869Z,15.20
2022-08-17T03:57:16.655Z,14.44
2022-08-17T03:59:45.032Z,15.39
2022-08-17T04:02:34.089Z,14.25
2022-08-17T04:05:01.755Z,14.82
2022-08-17T04:07:31.298Z,14.63
2022-08-17T04:09:59.560Z,14.25
2022-08-17T04:12:31.268Z,15.39
2022-08-17T04:14:59.121Z,15.01
2022-08-17T04:17:29.449Z,14.82
2022-08-17T04:19:57.620Z,15.01
2022-08-17T04:22:32.790Z,14.82
2022-08-17T04:25:21.234Z,14.44
2022-08-17T04:27:48.805Z,15.39
2022-08-17T04:30:16.263Z,15.39
2022-08-17T04:33:05.011Z,15.77
2022-08-17T04:35:40.078Z,15.20
2022-08-17T04:38:10.462Z,15.39
2022-08-17T04:40:56.680Z,15.01
2022-08-17T04:43:26.605Z,15.20
2022-08-17T04:46:06.041Z,16.34
2022-08-17T04:48:37.827Z,14.44
2022-08-17T04:51:10.009Z,15.39
2022-08-17T04:53:39.122Z,15.39
2022-08-17T04:56:06.854Z,15.96
2022-08-17T04:58:33.926Z,15.77
2022-08-17T05:01:01.571Z,15.77
2022-08-17T05:03:29.243Z,15.39
2022-08-17T05:05:55.949Z,14.63
2022-08-17T05:08:22.754Z,15.77
2022-08-17T05:10:50.218Z,15.58
2022-08-17T05:13:21.604Z,17.29
2022-08-17T05:15:53.093Z,15.77
2022-08-17T05:18:19.816Z,17.48
2022-08-17T05:20:46.696Z,16.91
2022-08-17T05:23:18.916Z,15.96
2022-08-17T05:25:54.595Z,15.96
2022-08-17T05:28:26.544Z,16.34
2022-08-17T05:30:59.329Z,17.10
2022-08-17T05:33:31.757Z,17.48
2022-08-17T05:36:00.203Z,17.29
2022-08-17T05:38:29.623Z,18.43
2022-08-17T05:41:00.373Z,18.43
2022-08-17T05:43:31.970Z,17.10
2022-08-17T05:46:27.373Z,18.62
2022-08-17T05:49:03.157Z,19.38
2022-08-17T05:52:04.071Z,18.81
2022-08-17T05:55:10.238Z,19.38
2022-08-17T05:57:56.292Z,20.14
2022-08-17T06:01:04.130Z,21.47
2022-08-17T06:04:21.682Z,21.66
2022-08-17T06:07:10.993Z,23.18
2022-08-17T06:10:10.114Z,21.66
2022-08-17T06:13:08.408Z,22.23
2022-08-17T06:16:33.776Z,21.09
2022-08-17T06:19:31.671Z,21.28
2022-08-17T06:22:00.317Z,20.14
2022-08-17T06:24:35.678Z,21.47
2022-08-17T06:27:13.009Z,21.85
2022-08-17T06:30:13.217Z,22.04
2022-08-17T06:32:45.101Z,20.52
2022-08-17T06:35:18.392Z,19.57
2022-08-17T06:38:37.166Z,20.33
2022-08-17T06:41:38.115Z,19.76
2022-08-17T06:44:43.198Z,16.53
2022-08-17T06:48:06.791Z,16.34
2022-08-17T06:50:46.531Z,15.20
2022-08-17T06:53:26.722Z,14.44
2022-08-17T06:56:22.064Z,14.25
2022-08-17T06:58:49.996Z,13.87
2022-08-17T07:01:31.781Z,13.68
2022-08-17T07:04:15.438Z,12.73
2022-08-17T07:07:24.656Z,12.92
2022-08-17T07:09:56.517Z,13.30
2022-08-17T07:12:34.221Z,14.25
2022-08-17T07:15:22.865Z,13.11
2022-08-17T07:17:49.854Z,11.97
2022-08-17T07:20:22.718Z,12.73
2022-08-17T07:23:03.177Z,11.59
2022-08-17T07:25:30.728Z,11.97
2022-08-17T07:28:06.107Z,11.78
2022-08-17T07:30:49.217Z,10.83
2022-08-17T07:33:26.062Z,11.02
2022-08-17T07:35:53.632Z,11.02
2022-08-17T07:38:28.352Z,11.40
2022-08-17T07:41:01.181Z,11.59
2022-08-17T07:43:45.028Z,11.78
2022-08-17T07:46:30.344Z,11.21
2022-08-17T07:49:09.117Z,10.45
2022-08-17T07:51:57.264Z,9.69
2022-08-17T07:54:37.629Z,8.74
2022-08-17T07:57:13.225Z,9.31
2022-08-17T07:59:44.175Z,8.93
2022-08-17T08:02:17.175Z,8.36
2022-08-17T08:05:01.899Z,8.93
2022-08-17T08:07:50.638Z,9.50
2022-08-17T08:10:38.387Z,9.88
2022-08-17T08:13:14.483Z,8.74
2022-08-17T08:15:54.796Z,9.12
2022-08-17T08:18:54.075Z,7.79
2022-08-17T08:21:42.206Z,7.79
2022-08-17T08:24:40.689Z,7.41
2022-08-17T08:27:50.325Z,7.98
2022-08-17T08:30:22.084Z,7.60
2022-08-17T08:33:29.487Z,9.12
2022-08-17T08:36:58.120Z,8.36
2022-08-17T08:39:30.802Z,10.07
2022-08-17T08:42:49.850Z,8.74
2022-08-17T08:45:43.981Z,7.22
2022-08-17T08:49:12.180Z,7.79
2022-08-17T08:51:56.216Z,8.55
2022-08-17T08:54:53.757Z,8.36
2022-08-17T08:57:34.374Z,7.98
2022-08-17T09:00:20.999Z,8.55
2022-08-17T09:03:51.949Z,10.26
2022-08-17T09:06:39.072Z,8.74
2022-08-17T09:09:19.078Z,8.93
2022-08-17T09:12:06.618Z,9.69
2022-08-17T09:14:47.001Z,8.93
2022-08-17T09:17:25.500Z,8.55
2022-08-17T09:20:05.762Z,7.79
2022-08-17T09:22:52.777Z,8.74
2022-08-17T09:25:28.398Z,7.98
2022-08-17T09:28:20.460Z,8.55
2022-08-17T09:30:55.286Z,8.55
2022-08-17T09:33:27.621Z,7.98
2022-08-17T09:36:08.467Z,8.74
2022-08-17T09:38:43.587Z,8.17
2022-08-17T09:41:50.433Z,8.36
2022-08-17T09:44:46.045Z,7.41
2022-08-17T09:47:24.431Z,8.93
2022-08-17T09:50:11.524Z,7.98
2022-08-17T09:52:38.257Z,7.98
2022-08-17T09:55:06.190Z,7.41
2022-08-17T09:58:12.014Z,8.74
2022-08-17T10:00:53.518Z,7.41
2022-08-17T10:03:51.786Z,8.36
2022-08-17T10:06:52.286Z,7.41
2022-08-17T10:09:53.138Z,8.17
2022-08-17T10:12:38.735Z,8.17
2022-08-17T10:15:42.722Z,7.98
2022-08-17T10:18:31.867Z,7.03
2022-08-17T10:21:38.417Z,8.93
2022-08-17T10:25:23.403Z,7.79
2022-08-17T10:28:05.435Z,7.98
2022-08-17T10:30:41.620Z,7.79
2022-08-17T10:33:24.835Z,7.41
2022-08-17T10:36:14.941Z,7.22
2022-08-17T10:38:59.773Z,7.41
2022-08-17T10:41:41.524Z,8.93
2022-08-17T10:44:56.285Z,7.41
2022-08-17T10:47:27.009Z,8.55
2022-08-17T10:49:56.014Z,8.74
2022-08-17T10:52:24.064Z,8.17
2022-08-17T10:54:51.807Z,8.74
2022-08-17T10:57:33.855Z,9.12
2022-08-17T11:00:15.638Z,8.93
2022-08-17T11:02:51.165Z,8.93
2022-08-17T11:05:54.033Z,8.55
2022-08-17T11:08:50.701Z,8.93
2022-08-17T11:12:10.699Z,7.60
2022-08-17T11:14:53.671Z,7.98
2022-08-17T11:18:15.419Z,8.55
2022-08-17T11:21:39.156Z,8.17
2022-08-17T11:24:30.581Z,7.79
2022-08-17T11:27:36.023Z,6.65
2022-08-17T11:30:34.746Z,8.17
2022-08-17T11:33:38.243Z,7.41
2022-08-17T11:36:23.520Z,7.60
2022-08-17T11:39:33.416Z,7.60
2022-08-17T11:42:44.355Z,8.17
2022-08-17T11:45:46.425Z,7.41
2022-08-17T11:49:06.513Z,7.22
2022-08-17T11:52:13.858Z,7.60
2022-08-17T11:54:48.024Z,8.17
2022-08-17T11:57:26.998Z,7.79
2022-08-17T12:00:11.599Z,7.98
2022-08-17T12:02:48.753Z,7.41
2022-08-17T12:05:19.431Z,8.36
2022-08-17T12:07:55.970Z,7.41
2022-08-17T12:10:32.114Z,7.79
2022-08-17T12:13:11.497Z,7.03
2022-08-17T12:15:48.795Z,7.98
2022-08-17T12:18:29.217Z,7.22
2022-08-17T12:21:24.370Z,7.22
2022-08-17T12:24:26.014Z,7.98
2022-08-17T12:27:04.353Z,7.41
2022-08-17T12:29:35.403Z,6.84
2022-08-17T12:32:07.361Z,7.41
2022-08-17T12:34:42.309Z,7.22
2022-08-17T12:37:18.510Z,8.17
2022-08-17T12:39:58.645Z,7.60
2022-08-17T12:42:33.091Z,7.41
2022-08-17T12:45:00.113Z,7.22
2022-08-17T12:47:30.053Z,7.60
2022-08-17T12:50:28.667Z,7.98
2022-08-17T12:53:01.657Z,7.03
2022-08-17T12:55:36.743Z,8.36
2022-08-17T12:58:05.006Z,8.17
2022-08-17T13:00:38.210Z,7.41
2022-08-17T13:03:19.301Z,7.03
2022-08-17T13:05:52.112Z,7.79
2022-08-17T13:08:28.163Z,7.03
2022-08-17T13:10:58.112Z,7.98
2022-08-17T13:13:41.360Z,8.74
2022-08-17T13:16:17.687Z,7.22
2022-08-17T13:19:12.766Z,7.60
2022-08-17T13:21:48.102Z,8.17
2022-08-17T13:24:37.922Z,8.93
2022-08-17T13:27:10.106Z,8.17
2022-08-17T13:29:51.532Z,7.60
2022-08-17T13:32:43.985Z,7.03
2022-08-17T13:35:39.954Z,7.41
2022-08-17T13:38:12.609Z,7.60
2022-08-17T13:40:53.143Z,8.17
2022-08-17T13:43:42.783Z,7.22
2022-08-17T13:46:26.574Z,7.41
2022-08-17T13:49:09.759Z,7.98
2022-08-17T13:51:46.170Z,8.17
2022-08-17T13:54:35.314Z,7.79
2022-08-17T13:57:23.255Z,8.17
2022-08-17T14:00:17.481Z,8.55
2022-08-17T14:02:44.507Z,7.98
2022-08-17T14:05:11.331Z,7.98
2022-08-17T14:07:40.727Z,8.36
2022-08-17T14:10:18.083Z,7.98
2022-08-17T14:12:46.070Z,7.60
2022-08-17T14:15:17.836Z,7.98
2022-08-17T14:17:44.578Z,8.55
2022-08-17T14:20:13.423Z,7.60
2022-08-17T14:22:45.643Z,7.60
2022-08-17T14:25:18.640Z,7.98
2022-08-17T14:27:53.028Z,8.36
2022-08-17T14:30:25.120Z,8.55
2022-08-17T14:32:53.555Z,8.17
2022-08-17T14:35:24.029Z,7.41
2022-08-17T14:37:52.847Z,7.60
2022-08-17T14:40:24.928Z,8.17
2022-08-17T14:42:55.139Z,8.74
2022-08-17T14:45:30.389Z,7.60
2022-08-17T14:48:07.584Z,7.79
2022-08-17T14:50:42.297Z,7.60
2022-08-17T14:53:13.566Z,8.55
2022-08-17T14:55:40.799Z,8.17
2022-08-17T14:58:09.503Z,7.79
2022-08-17T15:00:37.856Z,8.55
2022-08-17T15:03:05.737Z,8.55
2022-08-17T15:05:37.153Z,8.74
2022-08-17T15:08:05.726Z,8.74
2022-08-17T15:10:34.096Z,8.17
2022-08-17T15:13:01.155Z,8.93
2022-08-17T15:15:29.588Z,8.17
2022-08-17T15:17:57.231Z,7.60
2022-08-17T15:20:29.057Z,8.55
2022-08-17T15:22:58.810Z,9.12
2022-08-17T15:25:29.295Z,8.74
2022-08-17T15:27:56.698Z,8.74
2022-08-17T15:30:26.026Z,7.98
2022-08-17T15:32:55.198Z,8.36
2022-08-17T15:35:29.002Z,7.79
2022-08-17T15:38:09.898Z,7.79
2022-08-17T15:40:50.399Z,8.55
2022-08-17T15:43:32.645Z,7.98
2022-08-17T15:46:14.676Z,7.98
2022-08-17T15:48:44.791Z,7.60
2022-08-17T15:51:20.534Z,8.36
2022-08-17T15:53:55.659Z,9.12
2022-08-17T15:56:25.238Z,8.36
2022-08-17T15:58:53.019Z,8.93
2022-08-17T16:02:14.243Z,7.79
2022-08-17T16:04:30.213Z,8.36
2022-08-17T16:06:59.329Z,8.93
2022-08-17T16:09:26.409Z,8.36
2022-08-17T16:11:55.346Z,8.17
2022-08-17T16:14:24.298Z,8.17
2022-08-17T16:16:51.320Z,8.17
2022-08-17T16:19:17.999Z,8.74
2022-08-17T16:21:44.727Z,8.17
2022-08-17T16:24:13.251Z,8.17
2022-08-17T16:26:42.772Z,7.60
2022-08-17T16:29:09.592Z,8.36
2022-08-17T16:31:37.842Z,7.98
2022-08-17T16:34:17.284Z,7.60
2022-08-17T16:36:55.199Z,8.74
2022-08-17T16:39:26.825Z,10.64
2022-08-17T16:41:53.768Z,9.31
2022-08-17T16:44:21.971Z,9.12
2022-08-17T16:46:50.347Z,8.55
2022-08-17T16:49:35.969Z,8.74
2022-08-17T16:52:10.442Z,8.74
2022-08-17T16:54:43.346Z,10.45
2022-08-17T16:57:13.111Z,9.69
2022-08-17T16:59:44.958Z,9.50
2022-08-17T17:02:16.047Z,8.93
2022-08-17T17:05:02.964Z,10.07
2022-08-17T17:08:12.870Z,8.17
2022-08-17T17:10:55.730Z,8.17
2022-08-17T17:13:43.851Z,8.36
2022-08-17T17:16:21.517Z,8.36
2022-08-17T17:19:09.031Z,8.93
2022-08-17T17:21:58.694Z,8.74
2022-08-17T17:24:39.663Z,8.74
2022-08-17T17:27:42.556Z,8.36
2022-08-17T17:30:29.929Z,8.17
2022-08-17T17:33:09.139Z,8.93
2022-08-17T17:35:53.584Z,9.50
2022-08-17T17:38:49.674Z,9.31
2022-08-17T17:41:28.976Z,8.93
2022-08-17T17:44:07.860Z,8.55
2022-08-17T17:46:43.299Z,9.69
2022-08-17T17:49:14.290Z,8.93
2022-08-17T17:52:09.235Z,9.50
2022-08-17T17:54:57.427Z,9.31
2022-08-17T17:57:49.392Z,8.36
2022-08-17T18:00:24.284Z,8.55
2022-08-17T18:03:20.627Z,8.93
2022-08-17T18:06:24.771Z,9.12
2022-08-17T18:09:11.349Z,11.02
2022-08-17T18:12:16.660Z,10.45
2022-08-17T18:15:03.507Z,10.26
2022-08-17T18:17:31.203Z,9.12
2022-08-17T18:19:58.020Z,9.69
2022-08-17T18:22:27.728Z,9.12
2022-08-17T18:24:57.235Z,8.93
2022-08-17T18:27:38.104Z,10.26
2022-08-17T18:30:29.871Z,9.88
2022-08-17T18:33:26.288Z,9.31
2022-08-17T18:35:58.828Z,9.31
2022-08-17T18:38:41.398Z,8.93
2022-08-17T18:41:30.265Z,9.31
2022-08-17T18:44:06.093Z,9.88
2022-08-17T18:46:37.766Z,9.50
2022-08-17T18:49:29.304Z,8.93
2022-08-17T18:52:32.494Z,10.45
2022-08-17T18:55:20.112Z,9.12
2022-08-17T18:57:52.319Z,10.45
2022-08-17T19:00:40.500Z,9.69
2022-08-17T19:03:16.284Z,9.88
2022-08-17T19:06:15.403Z,9.88
2022-08-17T19:08:42.449Z,9.31
2022-08-17T19:11:34.021Z,10.26
2022-08-17T19:14:09.248Z,10.07
2022-08-17T19:17:02.296Z,10.45
2022-08-17T19:20:12.907Z,9.50
2022-08-17T19:23:08.002Z,10.07
2022-08-17T19:25:45.248Z,10.64
2022-08-17T19:28:25.716Z,10.26
2022-08-17T19:31:04.089Z,9.88
2022-08-17T19:33:31.583Z,10.45
2022-08-17T19:36:31.123Z,9.69
2022-08-17T19:39:26.794Z,9.69
2022-08-17T19:42:50.647Z,9.69
2022-08-17T19:45:39.508Z,9.88
2022-08-17T19:48:56.408Z,9.31
2022-08-17T19:51:34.090Z,10.26
2022-08-17T19:54:20.595Z,10.45
2022-08-17T19:57:06.787Z,10.64
2022-08-17T20:00:01.911Z,10.83
2022-08-17T20:03:05.877Z,11.21
2022-08-17T20:06:10.969Z,10.45
2022-08-17T20:08:48.735Z,10.64
2022-08-17T20:11:27.290Z,10.83
2022-08-17T20:14:33.801Z,10.64
2022-08-17T20:17:03.065Z,11.02
2022-08-17T20:19:55.525Z,11.21
2022-08-17T20:22:52.035Z,10.83
2022-08-17T20:25:43.532Z,10.64
2022-08-17T20:28:25.823Z,11.40
2022-08-17T20:30:52.905Z,11.02
2022-08-17T20:33:35.219Z,11.21
2022-08-17T20:36:22.762Z,11.40
2022-08-17T20:38:58.961Z,11.78
2022-08-17T20:41:30.461Z,11.02
2022-08-17T20:43:57.106Z,11.59
2022-08-17T20:46:36.429Z,10.64
2022-08-17T20:52:01.023Z,12.73
2022-08-17T20:54:49.570Z,11.78
2022-08-17T20:57:31.846Z,11.97
2022-08-17T21:00:18.150Z,12.73
2022-08-17T21:02:52.047Z,12.73
2022-08-17T21:05:34.254Z,12.16
2022-08-17T21:08:16.883Z,12.16
2022-08-17T21:10:47.107Z,12.35
2022-08-17T21:13:15.493Z,12.16
2022-08-17T21:15:59.055Z,11.78
2022-08-17T21:18:51.740Z,13.11
2022-08-17T21:21:41.695Z,11.97
2022-08-17T21:24:31.576Z,12.16
2022-08-17T21:27:18.129Z,12.54
2022-08-17T21:30:24.588Z,12.92
2022-08-17T21:33:18.477Z,12.35
2022-08-17T21:36:00.508Z,12.73
2022-08-17T21:38:41.681Z,13.11
2022-08-17T21:41:27.246Z,13.11
2022-08-17T21:44:06.214Z,13.30
2022-08-17T21:46:39.645Z,13.11
2022-08-17T21:49:13.843Z,13.87
2022-08-17T21:51:51.232Z,13.11
2022-08-17T21:54:34.660Z,13.11
2022-08-17T21:57:07.981Z,13.49
2022-08-17T21:59:39.985Z,13.30
2022-08-17T22:02:18.839Z,13.11
2022-08-17T22:05:16.648Z,12.92
2022-08-17T22:07:48.563Z,12.92
2022-08-17T22:10:38.931Z,13.30
2022-08-17T22:13:17.616Z,12.92
2022-08-17T22:15:50.258Z,13.49
2022-08-17T22:18:28.875Z,13.11
2022-08-17T22:21:01.743Z,14.25
2022-08-17T22:23:55.332Z,13.11
2022-08-17T22:26:27.704Z,13.68
2022-08-17T22:28:58.942Z,13.49
2022-08-17T22:31:29.687Z,13.68
2022-08-17T22:34:02.272Z,13.30
2022-08-17T22:36:35.056Z,13.68
2022-08-17T22:39:10.467Z,13.49
2022-08-17T22:41:51.062Z,14.06
2022-08-17T22:44:30.228Z,12.92
2022-08-17T22:47:13.952Z,13.49
2022-08-17T22:50:00.166Z,13.68
2022-08-17T22:52:35.252Z,13.87
2022-08-17T22:55:38.708Z,15.58
2022-08-17T22:58:35.209Z,13.68
2022-08-17T23:01:25.936Z,14.25
2022-08-17T23:04:01.279Z,14.44
2022-08-17T23:06:29.744Z,14.06
2022-08-17T23:08:57.767Z,14.25
2022-08-17T23:11:36.923Z,13.68
2022-08-17T23:14:16.691Z,13.11
2022-08-17T23:16:43.557Z,14.82
2022-08-17T23:19:18.937Z,13.87
2022-08-17T23:21:46.493Z,14.44
2022-08-17T23:24:25.973Z,13.30
2022-08-17T23:26:57.184Z,14.44
2022-08-17T23:29:29.179Z,14.25
2022-08-17T23:31:59.904Z,14.63
2022-08-17T23:34:28.566Z,14.63
2022-08-17T23:36:56.042Z,14.63
2022-08-17T23:39:27.725Z,15.01
2022-08-17T23:41:58.526Z,13.49
2022-08-17T23:44:27.027Z,13.11
2022-08-17T23:46:54.646Z,13.87
2022-08-17T23:49:21.623Z,14.44
2022-08-17T23:51:49.456Z,14.63
2022-08-17T23:54:26.858Z,14.82
2022-08-17T23:56:53.910Z,14.25
2022-08-17T23:59:23.326Z,14.25
